createdAt,value
2018-03-30T00:00:23.051Z,35.20
2018-03-30T00:02:57.572Z,35.20
2018-03-30T00:05:32.288Z,35.20
2018-03-30T00:08:06.760Z,35.10
2018-03-30T00:10:47.079Z,35.20
2018-03-30T00:13:21.891Z,35.20
2018-03-30T00:15:56.634Z,35.10
2018-03-30T00:18:31.952Z,35.10
2018-03-30T00:21:06.626Z,35.20
2018-03-30T00:23:42.039Z,35.50
2018-03-30T00:26:16.787Z,35.10
2018-03-30T00:28:52.110Z,35.10
2018-03-30T00:31:26.713Z,35.10
2018-03-30T00:34:01.401Z,35.10
2018-03-30T00:36:36.004Z,35.10
2018-03-30T00:39:10.503Z,35.10
2018-03-30T00:41:45.139Z,35.00
2018-03-30T00:44:19.688Z,35.00
2018-03-30T00:46:54.298Z,35.10
2018-03-30T00:49:28.852Z,34.90
2018-03-30T00:52:03.874Z,35.00
2018-03-30T00:54:39.314Z,35.10
2018-03-30T00:57:14.108Z,35.10
2018-03-30T00:59:48.831Z,35.10
2018-03-30T01:02:23.782Z,35.10
2018-03-30T01:04:58.590Z,35.00
2018-03-30T01:07:33.268Z,35.00
2018-03-30T01:10:07.949Z,34.90
2018-03-30T01:12:42.671Z,34.80
2018-03-30T01:15:17.404Z,35.00
2018-03-30T01:17:52.124Z,35.00
2018-03-30T01:20:26.747Z,34.90
2018-03-30T01:23:01.414Z,34.90
2018-03-30T01:25:36.037Z,35.10
2018-03-30T01:28:10.563Z,34.80
2018-03-30T01:30:45.199Z,34.90
2018-03-30T01:33:20.022Z,34.80
2018-03-30T01:35:54.656Z,34.80
2018-03-30T01:38:29.240Z,35.20
2018-03-30T01:41:03.656Z,35.40
2018-03-30T01:43:39.705Z,35.20
2018-03-30T01:46:14.439Z,35.20
2018-03-30T01:48:49.180Z,35.00
2018-03-30T01:51:23.933Z,34.80
2018-03-30T01:53:58.526Z,34.90
2018-03-30T01:56:33.164Z,34.60
2018-03-30T01:59:07.789Z,35.10
2018-03-30T02:01:43.066Z,35.00
2018-03-30T02:04:17.764Z,35.00
2018-03-30T02:06:52.470Z,35.20
2018-03-30T02:09:27.088Z,35.20
2018-03-30T02:12:01.738Z,35.10
2018-03-30T02:14:36.451Z,35.20
2018-03-30T02:17:11.167Z,34.90
2018-03-30T02:19:45.835Z,35.20
2018-03-30T02:22:20.537Z,35.10
2018-03-30T02:24:55.145Z,35.10
2018-03-30T02:27:30.476Z,35.10
2018-03-30T02:30:05.354Z,35.30
2018-03-30T02:32:40.672Z,35.20
2018-03-30T02:35:15.797Z,35.10
2018-03-30T02:37:51.283Z,35.10
2018-03-30T02:40:25.873Z,35.10
2018-03-30T02:43:00.489Z,35.10
2018-03-30T02:45:34.913Z,35.10
2018-03-30T02:48:09.505Z,35.10
2018-03-30T02:50:44.085Z,35.40
2018-03-30T02:53:18.723Z,35.40
2018-03-30T02:55:53.308Z,37.00
2018-03-30T02:58:28.042Z,35.30
2018-03-30T03:01:03.398Z,35.10
2018-03-30T03:03:38.023Z,35.00
2018-03-30T03:06:12.902Z,35.00
2018-03-30T03:08:48.189Z,35.40
2018-03-30T03:11:23.557Z,35.10
2018-03-30T03:13:58.343Z,35.30
2018-03-30T03:16:33.211Z,35.30
2018-03-30T03:19:08.732Z,35.40
2018-03-30T03:21:43.441Z,35.20
2018-03-30T03:24:18.203Z,35.50
2018-03-30T03:26:53.370Z,35.20
2018-03-30T03:29:27.935Z,35.10
2018-03-30T03:32:02.565Z,35.30
2018-03-30T03:34:37.096Z,35.10
2018-03-30T03:37:11.600Z,35.30
2018-03-30T03:39:46.190Z,35.20
2018-03-30T03:42:20.956Z,35.10
2018-03-30T03:44:55.802Z,35.10
2018-03-30T03:47:30.341Z,35.10
2018-03-30T03:50:04.810Z,35.10
2018-03-30T03:52:39.341Z,35.30
2018-03-30T03:55:14.066Z,35.40
2018-03-30T03:57:48.720Z,35.40
2018-03-30T04:00:23.442Z,35.40
2018-03-30T04:02:58.060Z,35.30
2018-03-30T04:05:33.097Z,35.40
2018-03-30T04:08:07.869Z,36.80
2018-03-30T04:10:42.288Z,35.80
2018-03-30T04:13:17.216Z,35.60
2018-03-30T04:15:51.707Z,35.80
2018-03-30T04:18:26.170Z,36.80
2018-03-30T04:21:00.957Z,35.90
2018-03-30T04:23:35.464Z,35.50
2018-03-30T04:26:10.029Z,35.40
2018-03-30T04:28:44.468Z,35.80
2018-03-30T04:31:19.392Z,35.80
2018-03-30T04:33:54.074Z,35.60
2018-03-30T04:36:28.616Z,35.50
2018-03-30T04:39:03.276Z,35.60
2018-03-30T04:41:38.569Z,35.50
2018-03-30T04:44:13.319Z,35.50
2018-03-30T04:46:47.912Z,35.60
2018-03-30T04:49:22.650Z,35.40
2018-03-30T04:51:57.185Z,35.70
2018-03-30T04:54:31.838Z,35.70
2018-03-30T04:57:06.626Z,35.70
2018-03-30T04:59:41.139Z,35.50
2018-03-30T05:02:15.724Z,35.60
2018-03-30T05:04:50.321Z,35.60
2018-03-30T05:07:24.907Z,35.50
2018-03-30T05:09:59.651Z,35.50
2018-03-30T05:12:34.321Z,35.50
2018-03-30T05:15:08.835Z,35.50
2018-03-30T05:17:43.403Z,35.60
2018-03-30T05:20:18.103Z,36.00
2018-03-30T05:22:52.805Z,35.80
2018-03-30T05:25:28.111Z,35.50
2018-03-30T05:28:02.941Z,35.50
2018-03-30T05:30:37.455Z,35.50
2018-03-30T05:33:11.966Z,35.80
2018-03-30T05:35:46.704Z,35.70
2018-03-30T05:38:21.428Z,35.60
2018-03-30T05:40:55.864Z,35.60
2018-03-30T05:43:31.310Z,35.10
2018-03-30T05:46:06.136Z,35.00
2018-03-30T05:48:40.797Z,35.40
2018-03-30T05:51:15.312Z,35.30
2018-03-30T05:53:49.998Z,35.60
2018-03-30T05:56:24.781Z,35.20
2018-03-30T05:58:59.808Z,35.30
2018-03-30T06:01:34.532Z,35.20
2018-03-30T06:04:09.010Z,35.10
2018-03-30T06:06:43.639Z,35.20
2018-03-30T06:09:18.145Z,35.10
2018-03-30T06:11:52.780Z,35.50
2018-03-30T06:14:27.860Z,35.30
2018-03-30T06:17:02.445Z,35.40
2018-03-30T06:19:36.978Z,35.30
2018-03-30T06:22:11.498Z,35.00
2018-03-30T06:24:46.119Z,34.90
2018-03-30T06:27:20.784Z,35.10
2018-03-30T06:29:55.369Z,35.10
2018-03-30T06:32:30.100Z,35.30
2018-03-30T06:35:04.791Z,34.80
2018-03-30T06:37:39.452Z,34.80
2018-03-30T06:40:14.178Z,34.80
2018-03-30T06:42:48.670Z,34.70
2018-03-30T06:45:23.665Z,34.40
2018-03-30T06:47:58.395Z,34.80
2018-03-30T06:50:33.179Z,34.80
2018-03-30T06:53:07.747Z,34.80
2018-03-30T06:55:42.276Z,34.70
2018-03-30T06:58:16.954Z,34.90
2018-03-30T07:00:51.467Z,34.80
2018-03-30T07:03:26.328Z,34.80
2018-03-30T07:06:01.032Z,34.80
2018-03-30T07:08:35.719Z,34.90
2018-03-30T07:11:10.424Z,34.40
2018-03-30T07:13:45.115Z,34.80
2018-03-30T07:16:19.834Z,34.80
2018-03-30T07:18:54.476Z,34.80
2018-03-30T07:21:29.191Z,35.10
2018-03-30T07:24:03.815Z,35.00
2018-03-30T07:26:38.444Z,35.00
2018-03-30T07:29:13.270Z,35.00
2018-03-30T07:31:47.796Z,35.10
2018-03-30T07:34:22.446Z,35.10
2018-03-30T07:36:57.044Z,35.00
2018-03-30T07:39:32.385Z,34.80
2018-03-30T07:42:07.013Z,34.90
2018-03-30T07:44:41.762Z,34.80
2018-03-30T07:47:16.370Z,35.00
2018-03-30T07:49:51.112Z,34.90
2018-03-30T07:52:25.721Z,34.90
2018-03-30T07:55:00.247Z,34.90
2018-03-30T07:57:34.875Z,35.00
2018-03-30T08:00:09.276Z,34.80
2018-03-30T08:02:43.952Z,35.00
2018-03-30T08:05:18.531Z,35.10
2018-03-30T08:07:53.870Z,35.00
2018-03-30T08:10:28.610Z,35.20
2018-03-30T08:13:04.032Z,35.00
2018-03-30T08:15:38.682Z,35.20
2018-03-30T08:18:13.637Z,35.20
2018-03-30T08:20:49.569Z,34.70
2018-03-30T08:23:24.296Z,34.60
2018-03-30T08:25:58.936Z,34.80
2018-03-30T08:28:33.535Z,34.80
2018-03-30T08:31:08.278Z,34.60
2018-03-30T08:33:42.790Z,34.40
2018-03-30T08:36:17.456Z,34.80
2018-03-30T08:38:52.143Z,34.50
2018-03-30T08:41:26.703Z,34.70
2018-03-30T08:44:02.103Z,34.70
2018-03-30T08:46:37.078Z,34.60
2018-03-30T08:49:11.774Z,34.70
2018-03-30T08:51:46.492Z,34.80
2018-03-30T08:54:21.229Z,34.60
2018-03-30T08:56:56.298Z,34.80
2018-03-30T08:59:30.875Z,34.80
2018-03-30T09:02:06.793Z,34.80
2018-03-30T09:04:41.355Z,34.70
2018-03-30T09:07:16.088Z,34.80
2018-03-30T09:09:50.707Z,34.70
2018-03-30T09:12:25.272Z,34.70
2018-03-30T09:14:59.969Z,34.80
2018-03-30T09:17:34.548Z,34.70
2018-03-30T09:20:09.935Z,34.40
2018-03-30T09:22:44.547Z,34.40
2018-03-30T09:25:19.094Z,35.80
2018-03-30T09:27:53.658Z,34.60
2018-03-30T09:30:28.222Z,34.70
2018-03-30T09:33:02.723Z,34.60
2018-03-30T09:35:37.264Z,34.70
2018-03-30T09:38:11.765Z,34.70
2018-03-30T09:40:46.615Z,34.70
2018-03-30T09:43:21.239Z,34.90
2018-03-30T09:45:55.920Z,34.80
2018-03-30T09:48:30.411Z,34.70
2018-03-30T09:51:04.865Z,34.60
2018-03-30T09:53:39.433Z,34.90
2018-03-30T09:56:14.161Z,34.80
2018-03-30T09:58:50.632Z,34.80
2018-03-30T10:01:25.674Z,34.80
2018-03-30T10:04:00.080Z,34.50
2018-03-30T10:06:35.306Z,34.70
2018-03-30T10:09:09.945Z,34.60
2018-03-30T10:11:44.811Z,34.60
2018-03-30T10:14:19.313Z,34.70
2018-03-30T10:16:53.950Z,34.60
2018-03-30T10:19:28.654Z,34.50
2018-03-30T10:22:03.362Z,34.50
2018-03-30T10:24:38.036Z,34.70
2018-03-30T10:27:12.734Z,34.50
2018-03-30T10:29:47.469Z,34.50
2018-03-30T10:32:21.992Z,34.40
2018-03-30T10:34:56.717Z,34.60
2018-03-30T10:37:31.443Z,34.40
2018-03-30T10:40:05.871Z,34.60
2018-03-30T10:42:40.519Z,34.50
2018-03-30T10:45:15.815Z,34.40
2018-03-30T10:47:50.682Z,34.30
2018-03-30T10:50:25.202Z,34.40
2018-03-30T10:52:59.914Z,34.40
2018-03-30T10:55:34.414Z,34.40
2018-03-30T10:58:09.154Z,34.50
2018-03-30T11:00:43.778Z,34.30
2018-03-30T11:03:18.447Z,34.40
2018-03-30T11:05:53.137Z,34.30
2018-03-30T11:08:27.629Z,34.40
2018-03-30T11:11:02.516Z,34.30
2018-03-30T11:13:37.052Z,34.30
2018-03-30T11:16:11.833Z,34.30
2018-03-30T11:18:46.477Z,34.40
2018-03-30T11:21:21.846Z,34.40
2018-03-30T11:23:56.579Z,34.10
2018-03-30T11:26:31.258Z,34.30
2018-03-30T11:29:05.913Z,34.30
2018-03-30T11:31:40.551Z,34.30
2018-03-30T11:34:14.994Z,34.40
2018-03-30T11:36:49.503Z,34.30
2018-03-30T11:39:24.094Z,34.10
2018-03-30T11:41:58.773Z,34.30
2018-03-30T11:44:34.464Z,34.40
2018-03-30T11:47:08.971Z,34.30
2018-03-30T11:49:43.817Z,34.10
2018-03-30T11:52:18.663Z,34.30
2018-03-30T11:54:53.286Z,34.10
2018-03-30T11:57:27.928Z,34.20
2018-03-30T12:00:02.556Z,34.00
2018-03-30T12:02:37.131Z,34.10
2018-03-30T12:05:11.780Z,34.00
2018-03-30T12:07:46.546Z,34.10
2018-03-30T12:10:21.117Z,34.10
2018-03-30T12:12:55.682Z,34.00
2018-03-30T12:15:30.188Z,34.00
2018-03-30T12:18:04.786Z,34.00
2018-03-30T12:20:39.419Z,34.10
2018-03-30T12:23:14.038Z,34.00
2018-03-30T12:25:48.664Z,34.10
2018-03-30T12:28:23.631Z,34.00
2018-03-30T12:30:58.060Z,34.00
2018-03-30T12:33:33.085Z,34.10
2018-03-30T12:36:07.565Z,34.00
2018-03-30T12:38:43.010Z,33.90
2018-03-30T12:41:17.689Z,34.00
2018-03-30T12:43:53.027Z,34.00
2018-03-30T12:46:27.705Z,33.90
2018-03-30T12:49:02.473Z,34.00
2018-03-30T12:51:37.890Z,34.00
2018-03-30T12:54:12.507Z,33.90
2018-03-30T12:56:47.141Z,33.80
2018-03-30T12:59:21.916Z,33.80
2018-03-30T13:01:56.520Z,34.00
2018-03-30T13:04:31.094Z,33.90
2018-03-30T13:07:05.764Z,33.80
2018-03-30T13:09:40.367Z,34.00
2018-03-30T13:12:15.089Z,33.80
2018-03-30T13:14:49.713Z,33.90
2018-03-30T13:17:24.434Z,33.70
2018-03-30T13:19:59.157Z,34.00
2018-03-30T13:22:33.859Z,34.00
2018-03-30T13:25:09.036Z,33.90
2018-03-30T13:27:44.508Z,33.90
2018-03-30T13:30:19.120Z,34.00
2018-03-30T13:32:53.819Z,33.80
2018-03-30T13:35:28.455Z,33.70
2018-03-30T13:38:03.164Z,34.00
2018-03-30T13:40:37.845Z,34.00
2018-03-30T13:43:12.533Z,35.10
2018-03-30T13:45:47.499Z,33.90
2018-03-30T13:48:21.980Z,34.00
2018-03-30T13:51:17.844Z,34.00
2018-03-30T13:53:54.296Z,33.90
2018-03-30T13:56:30.743Z,34.00
2018-03-30T13:59:06.079Z,35.30
2018-03-30T14:01:43.684Z,34.00
2018-03-30T14:04:20.255Z,33.90
2018-03-30T14:06:56.702Z,34.10
2018-03-30T14:09:33.081Z,34.00
2018-03-30T14:12:25.215Z,34.00
2018-03-30T14:14:59.947Z,34.20
2018-03-30T14:17:40.405Z,34.10
2018-03-30T14:20:19.559Z,34.10
2018-03-30T14:22:55.091Z,34.30
2018-03-30T14:25:32.463Z,34.00
2018-03-30T14:28:10.677Z,34.10
2018-03-30T14:30:54.753Z,34.10
2018-03-30T14:33:30.164Z,34.10
2018-03-30T14:36:25.694Z,34.00
2018-03-30T14:39:11.984Z,34.10
2018-03-30T14:41:46.751Z,34.20
2018-03-30T14:44:22.300Z,33.80
2018-03-30T14:46:58.368Z,34.10
2018-03-30T14:49:35.803Z,34.10
2018-03-30T14:52:23.240Z,34.10
2018-03-30T14:54:59.725Z,34.10
2018-03-30T14:57:35.988Z,34.20
2018-03-30T15:00:23.288Z,34.10
2018-03-30T15:03:03.732Z,34.10
2018-03-30T15:05:43.253Z,34.10
2018-03-30T15:08:22.523Z,34.20
2018-03-30T15:11:01.601Z,34.20
2018-03-30T15:13:51.939Z,34.10
2018-03-30T15:19:45.272Z,34.00
2018-03-30T15:22:22.666Z,34.10
2018-03-30T15:28:02.973Z,33.80
2018-03-30T15:30:41.195Z,34.00
2018-03-30T15:33:34.237Z,34.10
2018-03-30T15:36:33.788Z,34.10
2018-03-30T15:39:09.127Z,34.10
2018-03-30T15:41:48.147Z,34.10
2018-03-30T15:44:23.013Z,34.10
2018-03-30T15:47:02.555Z,34.10
2018-03-30T15:49:38.880Z,34.10
2018-03-30T15:52:14.433Z,34.00
2018-03-30T15:54:49.060Z,34.10
2018-03-30T15:57:24.392Z,34.10
2018-03-30T15:59:59.077Z,34.10
2018-03-30T16:02:33.744Z,34.00
2018-03-30T16:05:08.280Z,34.50
2018-03-30T16:07:43.028Z,34.00
2018-03-30T16:10:21.081Z,34.10
2018-03-30T16:12:55.733Z,34.00
2018-03-30T16:15:30.346Z,34.10
2018-03-30T16:18:04.991Z,34.10
2018-03-30T16:20:39.088Z,34.10
2018-03-30T16:23:13.215Z,35.50
2018-03-30T16:25:47.416Z,34.10
2018-03-30T16:28:21.493Z,34.10
2018-03-30T16:30:55.568Z,34.00
2018-03-30T16:33:29.761Z,34.10
2018-03-30T16:36:03.920Z,34.10
2018-03-30T16:38:38.079Z,33.90
2018-03-30T16:41:11.822Z,34.20
2018-03-30T16:43:45.704Z,34.10
2018-03-30T16:46:19.449Z,34.10
2018-03-30T16:48:53.243Z,34.10
2018-03-30T16:51:27.963Z,34.10
2018-03-30T16:54:01.751Z,34.00
2018-03-30T16:56:36.468Z,34.20
2018-03-30T16:59:10.285Z,34.10
2018-03-30T17:01:44.931Z,34.00
2018-03-30T17:04:18.840Z,34.00
2018-03-30T17:06:53.437Z,34.00
2018-03-30T17:09:27.460Z,34.00
2018-03-30T17:12:02.168Z,34.10
2018-03-30T17:14:36.185Z,34.00
2018-03-30T17:17:10.133Z,34.10
2018-03-30T17:19:44.095Z,34.10
2018-03-30T17:22:18.753Z,34.10
2018-03-30T17:24:52.779Z,34.10
2018-03-30T17:27:26.645Z,34.10
2018-03-30T17:30:00.768Z,34.10
2018-03-30T17:32:35.412Z,34.00
2018-03-30T17:35:09.298Z,34.00
2018-03-30T17:37:43.096Z,33.90
2018-03-30T17:40:17.044Z,34.00
2018-03-30T17:42:51.655Z,34.10
2018-03-30T17:45:26.296Z,34.00
2018-03-30T17:48:00.905Z,34.00
2018-03-30T17:50:35.082Z,33.90
2018-03-30T17:53:08.980Z,33.90
2018-03-30T17:55:42.808Z,34.00
2018-03-30T17:58:16.741Z,34.00
2018-03-30T18:00:50.641Z,34.00
2018-03-30T18:03:24.531Z,34.00
2018-03-30T18:05:58.401Z,34.10
2018-03-30T18:08:33.081Z,34.00
2018-03-30T18:11:07.102Z,34.00
2018-03-30T18:13:41.723Z,34.10
2018-03-30T18:16:15.702Z,34.00
2018-03-30T18:18:49.619Z,34.00
2018-03-30T18:21:23.636Z,33.90
2018-03-30T18:23:57.544Z,34.00
2018-03-30T18:26:31.444Z,34.10
2018-03-30T18:29:05.363Z,33.90
2018-03-30T18:31:39.392Z,34.10
2018-03-30T18:34:14.336Z,34.10
2018-03-30T18:36:48.319Z,34.10
2018-03-30T18:39:22.449Z,35.50
2018-03-30T18:41:56.313Z,34.00
2018-03-30T18:44:30.361Z,34.10
2018-03-30T18:47:04.460Z,34.10
2018-03-30T18:49:39.526Z,34.10
2018-03-30T18:52:13.412Z,34.10
2018-03-30T18:54:47.213Z,34.10
2018-03-30T18:57:21.755Z,34.00
2018-03-30T18:59:56.080Z,34.00
2018-03-30T19:02:29.938Z,34.10
2018-03-30T19:05:04.206Z,34.20
2018-03-30T19:07:38.270Z,34.10
2018-03-30T19:10:13.004Z,34.40
2018-03-30T19:12:47.008Z,34.30
2018-03-30T19:15:20.873Z,34.20
2018-03-30T19:17:54.736Z,34.20
2018-03-30T19:20:30.008Z,34.10
2018-03-30T19:23:04.529Z,34.10
2018-03-30T19:25:38.401Z,34.10
2018-03-30T19:28:12.287Z,34.20
2018-03-30T19:30:46.350Z,34.20
2018-03-30T19:33:21.150Z,34.90
2018-03-30T19:35:55.195Z,34.20
2018-03-30T19:38:29.815Z,34.20
2018-03-30T19:41:03.627Z,34.20
2018-03-30T19:43:38.250Z,34.40
2018-03-30T19:46:12.323Z,34.40
2018-03-30T19:48:46.889Z,34.30
2018-03-30T19:51:21.103Z,34.30
2018-03-30T19:53:54.977Z,34.40
2018-03-30T19:56:29.517Z,34.40
2018-03-30T19:59:03.644Z,34.40
2018-03-30T20:01:37.862Z,34.30
2018-03-30T20:04:11.636Z,34.40
2018-03-30T20:06:45.647Z,34.40
2018-03-30T20:09:20.304Z,34.30
2018-03-30T20:11:54.283Z,34.30
2018-03-30T20:14:28.173Z,34.40
2018-03-30T20:17:02.746Z,34.50
2018-03-30T20:19:37.355Z,34.60
2018-03-30T20:22:11.553Z,34.60
2018-03-30T20:24:45.555Z,34.70
2018-03-30T20:27:19.567Z,34.70
2018-03-30T20:29:54.201Z,34.80
2018-03-30T20:32:28.120Z,34.70
2018-03-30T20:35:02.355Z,34.80
2018-03-30T20:37:36.323Z,34.80
2018-03-30T20:40:10.258Z,35.20
2018-03-30T20:42:44.156Z,35.10
2018-03-30T20:45:18.043Z,35.20
2018-03-30T20:47:51.955Z,34.90
2018-03-30T20:50:25.790Z,35.10
2018-03-30T20:53:00.591Z,35.10
2018-03-30T20:55:34.625Z,35.00
2018-03-30T20:58:09.269Z,35.30
2018-03-30T21:00:43.132Z,35.20
2018-03-30T21:03:16.952Z,35.30
2018-03-30T21:05:51.607Z,35.00
2018-03-30T21:08:25.526Z,35.00
2018-03-30T21:10:59.832Z,35.20
2018-03-30T21:13:33.695Z,35.30
2018-03-30T21:16:07.518Z,35.30
2018-03-30T21:18:41.426Z,35.10
2018-03-30T21:21:15.352Z,35.10
2018-03-30T21:23:49.190Z,35.20
2018-03-30T21:26:23.132Z,35.30
2018-03-30T21:28:57.807Z,36.20
2018-03-30T21:31:32.447Z,35.00
2018-03-30T21:34:06.319Z,35.00
2018-03-30T21:36:40.668Z,35.10
2018-03-30T21:39:14.523Z,35.00
2018-03-30T21:41:49.249Z,35.40
2018-03-30T21:44:23.232Z,35.10
2018-03-30T21:46:57.169Z,35.30
2018-03-30T21:49:31.852Z,35.20
2018-03-30T21:52:05.909Z,35.10
2018-03-30T21:54:39.776Z,35.30
2018-03-30T21:57:14.444Z,35.30
2018-03-30T21:59:48.420Z,35.30
2018-03-30T22:02:23.003Z,35.30
2018-03-30T22:04:56.781Z,35.30
2018-03-30T22:07:30.698Z,35.00
2018-03-30T22:10:05.275Z,35.10
2018-03-30T22:12:39.218Z,35.00
2018-03-30T22:15:13.128Z,35.10
2018-03-30T22:17:46.981Z,35.00
2018-03-30T22:20:20.956Z,35.20
2018-03-30T22:22:55.596Z,35.30
2018-03-30T22:25:29.475Z,35.30
2018-03-30T22:28:03.207Z,35.30
2018-03-30T22:30:38.008Z,35.20
2018-03-30T22:33:12.048Z,35.20
2018-03-30T22:35:46.061Z,35.30
2018-03-30T22:38:21.107Z,35.40
2018-03-30T22:40:55.905Z,35.10
2018-03-30T22:43:29.702Z,35.10
2018-03-30T22:46:03.608Z,35.10
2018-03-30T22:48:37.449Z,35.20
2018-03-30T22:51:11.570Z,35.10
2018-03-30T22:53:45.887Z,35.10
2018-03-30T22:56:20.102Z,35.40
2018-03-30T22:58:54.318Z,35.10
2018-03-30T23:01:28.196Z,35.40
2018-03-30T23:04:02.543Z,35.40
2018-03-30T23:06:36.472Z,35.10
2018-03-30T23:09:10.626Z,35.30
2018-03-30T23:11:44.804Z,35.30
2018-03-30T23:14:19.302Z,35.10
2018-03-30T23:16:53.305Z,35.20
2018-03-30T23:19:27.427Z,35.20
2018-03-30T23:22:02.311Z,35.20
2018-03-30T23:24:36.454Z,35.10
2018-03-30T23:27:10.588Z,35.20
2018-03-30T23:29:44.859Z,35.10
2018-03-30T23:32:19.149Z,35.70
2018-03-30T23:34:53.404Z,35.50
2018-03-30T23:37:27.607Z,35.80
2018-03-30T23:40:01.668Z,36.00
2018-03-30T23:42:35.774Z,36.20
2018-03-30T23:45:09.900Z,35.90
2018-03-30T23:47:44.099Z,36.00
2018-03-30T23:50:18.220Z,35.90
2018-03-30T23:52:52.423Z,36.20
2018-03-30T23:55:26.599Z,36.00
2018-03-30T23:58:01.660Z,36.20
